sensor_id;sensor_type;location;lat;lon;timestamp;P1;durP1;ratioP1;P2;durP2;ratioP2
13816;SDS011;6979;52.116;5.286;2023-07-13T00:02:22;5.07;;;2.63;;
13816;SDS011;6979;52.116;5.286;2023-07-13T00:04:49;6.63;;;2.87;;
13816;SDS011;6979;52.116;5.286;2023-07-13T00:07:17;4.30;;;2.40;;
13816;SDS011;6979;52.116;5.286;2023-07-13T00:09:45;5.23;;;2.00;;
13816;SDS011;6979;52.116;5.286;2023-07-13T00:12:22;2.90;;;1.90;;
13816;SDS011;6979;52.116;5.286;2023-07-13T00:14:51;3.03;;;1.70;;
13816;SDS011;6979;52.116;5.286;2023-07-13T00:17:18;5.93;;;2.87;;
13816;SDS011;6979;52.116;5.286;2023-07-13T00:19:46;3.27;;;1.87;;
13816;SDS011;6979;52.116;5.286;2023-07-13T00:22:14;6.70;;;2.63;;
13816;SDS011;6979;52.116;5.286;2023-07-13T00:24:41;4.40;;;2.50;;
13816;SDS011;6979;52.116;5.286;2023-07-13T00:27:08;4.50;;;2.10;;
13816;SDS011;6979;52.116;5.286;2023-07-13T00:29:36;4.63;;;2.53;;
13816;SDS011;6979;52.116;5.286;2023-07-13T00:32:05;6.80;;;2.70;;
13816;SDS011;6979;52.116;5.286;2023-07-13T00:34:36;3.57;;;2.40;;
13816;SDS011;6979;52.116;5.286;2023-07-13T00:37:06;5.37;;;2.97;;
13816;SDS011;6979;52.116;5.286;2023-07-13T00:39:34;5.90;;;2.77;;
13816;SDS011;6979;52.116;5.286;2023-07-13T00:42:02;4.10;;;2.23;;
13816;SDS011;6979;52.116;5.286;2023-07-13T00:44:30;3.30;;;1.77;;
13816;SDS011;6979;52.116;5.286;2023-07-13T00:46:57;3.07;;;2.00;;
13816;SDS011;6979;52.116;5.286;2023-07-13T00:49:25;5.80;;;2.47;;
13816;SDS011;6979;52.116;5.286;2023-07-13T00:51:55;5.77;;;1.87;;
13816;SDS011;6979;52.116;5.286;2023-07-13T00:54:26;2.27;;;2.07;;
13816;SDS011;6979;52.116;5.286;2023-07-13T00:56:59;2.40;;;2.00;;
13816;SDS011;6979;52.116;5.286;2023-07-13T00:59:29;2.30;;;1.70;;
13816;SDS011;6979;52.116;5.286;2023-07-13T01:01:57;4.50;;;2.10;;
13816;SDS011;6979;52.116;5.286;2023-07-13T01:04:27;3.33;;;2.10;;
13816;SDS011;6979;52.116;5.286;2023-07-13T01:06:54;3.33;;;2.10;;
13816;SDS011;6979;52.116;5.286;2023-07-13T01:09:22;2.50;;;1.73;;
13816;SDS011;6979;52.116;5.286;2023-07-13T01:11:50;3.50;;;1.90;;
13816;SDS011;6979;52.116;5.286;2023-07-13T01:14:17;2.27;;;2.07;;
13816;SDS011;6979;52.116;5.286;2023-07-13T01:16:45;4.37;;;2.00;;
13816;SDS011;6979;52.116;5.286;2023-07-13T01:19:18;4.80;;;2.30;;
13816;SDS011;6979;52.116;5.286;2023-07-13T01:22:02;4.73;;;2.37;;
13816;SDS011;6979;52.116;5.286;2023-07-13T01:24:34;3.30;;;2.07;;
13816;SDS011;6979;52.116;5.286;2023-07-13T01:27:02;2.20;;;2.00;;
13816;SDS011;6979;52.116;5.286;2023-07-13T01:29:33;3.20;;;1.93;;
13816;SDS011;6979;52.116;5.286;2023-07-13T01:32:07;2.60;;;2.13;;
13816;SDS011;6979;52.116;5.286;2023-07-13T01:34:37;4.07;;;2.30;;
13816;SDS011;6979;52.116;5.286;2023-07-13T01:37:09;4.20;;;2.20;;
13816;SDS011;6979;52.116;5.286;2023-07-13T01:39:36;4.63;;;2.47;;
13816;SDS011;6979;52.116;5.286;2023-07-13T01:42:04;5.87;;;2.47;;
13816;SDS011;6979;52.116;5.286;2023-07-13T01:44:31;6.73;;;2.20;;
13816;SDS011;6979;52.116;5.286;2023-07-13T01:46:59;3.90;;;1.97;;
13816;SDS011;6979;52.116;5.286;2023-07-13T01:49:27;3.83;;;2.13;;
13816;SDS011;6979;52.116;5.286;2023-07-13T01:51:54;5.07;;;2.20;;
13816;SDS011;6979;52.116;5.286;2023-07-13T01:54:22;3.60;;;1.97;;
13816;SDS011;6979;52.116;5.286;2023-07-13T01:56:49;4.50;;;2.60;;
13816;SDS011;6979;52.116;5.286;2023-07-13T01:59:17;5.50;;;2.60;;
13816;SDS011;6979;52.116;5.286;2023-07-13T02:01:44;3.47;;;2.00;;
13816;SDS011;6979;52.116;5.286;2023-07-13T02:04:11;2.80;;;2.00;;
13816;SDS011;6979;52.116;5.286;2023-07-13T02:06:38;3.47;;;2.30;;
13816;SDS011;6979;52.116;5.286;2023-07-13T02:09:05;2.87;;;2.30;;
13816;SDS011;6979;52.116;5.286;2023-07-13T02:11:34;4.13;;;1.90;;
13816;SDS011;6979;52.116;5.286;2023-07-13T02:14:02;4.47;;;1.97;;
13816;SDS011;6979;52.116;5.286;2023-07-13T02:16:30;3.20;;;2.00;;
13816;SDS011;6979;52.116;5.286;2023-07-13T02:18:57;4.00;;;2.50;;
13816;SDS011;6979;52.116;5.286;2023-07-13T02:21:26;3.97;;;2.13;;
13816;SDS011;6979;52.116;5.286;2023-07-13T02:23:53;4.37;;;2.20;;
13816;SDS011;6979;52.116;5.286;2023-07-13T02:26:20;6.83;;;2.83;;
13816;SDS011;6979;52.116;5.286;2023-07-13T02:28:49;6.13;;;2.73;;
13816;SDS011;6979;52.116;5.286;2023-07-13T02:31:19;7.67;;;2.87;;
13816;SDS011;6979;52.116;5.286;2023-07-13T02:33:46;4.67;;;2.67;;
13816;SDS011;6979;52.116;5.286;2023-07-13T02:36:13;4.80;;;3.10;;
13816;SDS011;6979;52.116;5.286;2023-07-13T02:38:43;2.57;;;2.17;;
13816;SDS011;6979;52.116;5.286;2023-07-13T02:41:10;4.17;;;2.57;;
13816;SDS011;6979;52.116;5.286;2023-07-13T02:43:39;4.87;;;2.70;;
13816;SDS011;6979;52.116;5.286;2023-07-13T02:46:09;5.63;;;2.53;;
13816;SDS011;6979;52.116;5.286;2023-07-13T02:48:37;5.70;;;2.53;;
13816;SDS011;6979;52.116;5.286;2023-07-13T02:51:05;3.00;;;2.43;;
13816;SDS011;6979;52.116;5.286;2023-07-13T02:53:33;4.43;;;2.27;;
13816;SDS011;6979;52.116;5.286;2023-07-13T02:56:01;4.70;;;2.60;;
13816;SDS011;6979;52.116;5.286;2023-07-13T02:58:28;4.00;;;2.37;;
13816;SDS011;6979;52.116;5.286;2023-07-13T03:00:55;7.30;;;3.60;;
13816;SDS011;6979;52.116;5.286;2023-07-13T03:03:24;4.97;;;2.47;;
13816;SDS011;6979;52.116;5.286;2023-07-13T03:05:57;7.63;;;2.93;;
13816;SDS011;6979;52.116;5.286;2023-07-13T03:08:32;4.77;;;2.70;;
13816;SDS011;6979;52.116;5.286;2023-07-13T03:11:00;2.93;;;2.20;;
13816;SDS011;6979;52.116;5.286;2023-07-13T03:13:30;6.07;;;2.90;;
13816;SDS011;6979;52.116;5.286;2023-07-13T03:15:58;4.13;;;2.80;;
13816;SDS011;6979;52.116;5.286;2023-07-13T03:18:27;3.80;;;2.70;;
13816;SDS011;6979;52.116;5.286;2023-07-13T03:20:58;5.70;;;2.90;;
13816;SDS011;6979;52.116;5.286;2023-07-13T03:23:25;7.13;;;3.47;;
13816;SDS011;6979;52.116;5.286;2023-07-13T03:26:00;5.00;;;3.10;;
13816;SDS011;6979;52.116;5.286;2023-07-13T03:28:30;5.20;;;3.30;;
13816;SDS011;6979;52.116;5.286;2023-07-13T03:31:01;3.83;;;2.63;;
13816;SDS011;6979;52.116;5.286;2023-07-13T03:33:32;2.90;;;2.33;;
13816;SDS011;6979;52.116;5.286;2023-07-13T03:36:01;6.17;;;2.70;;
13816;SDS011;6979;52.116;5.286;2023-07-13T03:38:31;3.20;;;2.57;;
13816;SDS011;6979;52.116;5.286;2023-07-13T03:41:01;3.97;;;2.40;;
13816;SDS011;6979;52.116;5.286;2023-07-13T03:43:28;5.33;;;2.30;;
13816;SDS011;6979;52.116;5.286;2023-07-13T03:45:56;3.93;;;2.50;;
13816;SDS011;6979;52.116;5.286;2023-07-13T03:48:23;3.63;;;2.87;;
13816;SDS011;6979;52.116;5.286;2023-07-13T03:50:52;4.97;;;2.70;;
13816;SDS011;6979;52.116;5.286;2023-07-13T03:53:19;6.40;;;2.80;;
13816;SDS011;6979;52.116;5.286;2023-07-13T03:55:46;4.57;;;3.33;;
13816;SDS011;6979;52.116;5.286;2023-07-13T03:58:25;4.20;;;3.23;;
13816;SDS011;6979;52.116;5.286;2023-07-13T04:01:01;5.70;;;3.87;;
13816;SDS011;6979;52.116;5.286;2023-07-13T04:03:30;3.70;;;3.07;;
13816;SDS011;6979;52.116;5.286;2023-07-13T04:06:00;5.80;;;2.93;;
13816;SDS011;6979;52.116;5.286;2023-07-13T04:08:29;4.57;;;3.17;;
13816;SDS011;6979;52.116;5.286;2023-07-13T04:10:58;6.83;;;3.53;;
13816;SDS011;6979;52.116;5.286;2023-07-13T04:13:26;5.83;;;3.27;;
13816;SDS011;6979;52.116;5.286;2023-07-13T04:15:54;5.87;;;3.30;;
13816;SDS011;6979;52.116;5.286;2023-07-13T04:18:21;4.70;;;3.33;;
13816;SDS011;6979;52.116;5.286;2023-07-13T04:20:49;5.27;;;3.20;;
13816;SDS011;6979;52.116;5.286;2023-07-13T04:23:18;5.10;;;3.27;;
13816;SDS011;6979;52.116;5.286;2023-07-13T04:25:45;5.90;;;3.13;;
13816;SDS011;6979;52.116;5.286;2023-07-13T04:28:14;4.60;;;3.10;;
13816;SDS011;6979;52.116;5.286;2023-07-13T04:30:42;5.23;;;3.03;;
13816;SDS011;6979;52.116;5.286;2023-07-13T04:33:10;6.70;;;3.83;;
13816;SDS011;6979;52.116;5.286;2023-07-13T04:35:38;8.50;;;3.97;;
13816;SDS011;6979;52.116;5.286;2023-07-13T04:38:05;7.23;;;3.70;;
13816;SDS011;6979;52.116;5.286;2023-07-13T04:40:34;7.77;;;4.23;;
13816;SDS011;6979;52.116;5.286;2023-07-13T04:43:01;8.57;;;4.10;;
13816;SDS011;6979;52.116;5.286;2023-07-13T04:45:28;11.53;;;4.63;;
13816;SDS011;6979;52.116;5.286;2023-07-13T04:47:57;7.07;;;3.80;;
13816;SDS011;6979;52.116;5.286;2023-07-13T04:50:24;9.70;;;4.10;;
13816;SDS011;6979;52.116;5.286;2023-07-13T04:52:51;7.10;;;3.80;;
13816;SDS011;6979;52.116;5.286;2023-07-13T04:55:18;6.17;;;3.90;;
13816;SDS011;6979;52.116;5.286;2023-07-13T04:57:48;6.73;;;4.10;;
13816;SDS011;6979;52.116;5.286;2023-07-13T05:00:15;9.60;;;4.87;;
13816;SDS011;6979;52.116;5.286;2023-07-13T05:02:43;7.53;;;4.00;;
13816;SDS011;6979;52.116;5.286;2023-07-13T05:05:11;8.73;;;5.27;;
13816;SDS011;6979;52.116;5.286;2023-07-13T05:07:45;6.27;;;4.13;;
13816;SDS011;6979;52.116;5.286;2023-07-13T05:10:12;8.00;;;4.67;;
13816;SDS011;6979;52.116;5.286;2023-07-13T05:12:39;6.03;;;4.57;;
13816;SDS011;6979;52.116;5.286;2023-07-13T05:15:08;9.13;;;5.00;;
13816;SDS011;6979;52.116;5.286;2023-07-13T05:17:36;8.87;;;5.23;;
13816;SDS011;6979;52.116;5.286;2023-07-13T05:20:04;8.40;;;4.37;;
13816;SDS011;6979;52.116;5.286;2023-07-13T05:22:32;6.90;;;3.87;;
13816;SDS011;6979;52.116;5.286;2023-07-13T05:25:00;9.90;;;4.30;;
13816;SDS011;6979;52.116;5.286;2023-07-13T05:27:27;10.57;;;5.10;;
13816;SDS011;6979;52.116;5.286;2023-07-13T05:29:54;10.67;;;4.57;;
13816;SDS011;6979;52.116;5.286;2023-07-13T05:32:23;6.67;;;4.60;;
13816;SDS011;6979;52.116;5.286;2023-07-13T05:34:50;7.60;;;4.93;;
13816;SDS011;6979;52.116;5.286;2023-07-13T05:37:24;11.50;;;6.37;;
13816;SDS011;6979;52.116;5.286;2023-07-13T05:39:51;11.00;;;6.00;;
13816;SDS011;6979;52.116;5.286;2023-07-13T05:42:18;8.60;;;5.43;;
13816;SDS011;6979;52.116;5.286;2023-07-13T05:44:46;8.07;;;5.63;;
13816;SDS011;6979;52.116;5.286;2023-07-13T05:47:13;10.37;;;6.70;;
13816;SDS011;6979;52.116;5.286;2023-07-13T05:49:41;8.97;;;6.77;;
13816;SDS011;6979;52.116;5.286;2023-07-13T05:52:08;13.70;;;6.13;;
13816;SDS011;6979;52.116;5.286;2023-07-13T05:54:35;10.33;;;6.23;;
13816;SDS011;6979;52.116;5.286;2023-07-13T05:57:03;11.83;;;5.87;;
13816;SDS011;6979;52.116;5.286;2023-07-13T05:59:30;10.80;;;6.17;;
13816;SDS011;6979;52.116;5.286;2023-07-13T06:01:57;6.30;;;5.57;;
13816;SDS011;6979;52.116;5.286;2023-07-13T06:04:24;8.90;;;5.93;;
13816;SDS011;6979;52.116;5.286;2023-07-13T06:06:52;13.50;;;7.67;;
13816;SDS011;6979;52.116;5.286;2023-07-13T06:09:19;9.77;;;5.63;;
13816;SDS011;6979;52.116;5.286;2023-07-13T06:11:46;14.23;;;6.70;;
13816;SDS011;6979;52.116;5.286;2023-07-13T06:14:13;10.47;;;5.97;;
13816;SDS011;6979;52.116;5.286;2023-07-13T06:16:41;12.00;;;5.93;;
13816;SDS011;6979;52.116;5.286;2023-07-13T06:19:08;11.03;;;6.50;;
13816;SDS011;6979;52.116;5.286;2023-07-13T06:21:35;14.57;;;7.67;;
13816;SDS011;6979;52.116;5.286;2023-07-13T06:24:03;16.13;;;7.93;;
13816;SDS011;6979;52.116;5.286;2023-07-13T06:26:31;8.00;;;5.90;;
13816;SDS011;6979;52.116;5.286;2023-07-13T06:28:59;12.57;;;7.10;;
13816;SDS011;6979;52.116;5.286;2023-07-13T06:31:26;10.43;;;7.30;;
13816;SDS011;6979;52.116;5.286;2023-07-13T06:33:58;9.23;;;6.53;;
13816;SDS011;6979;52.116;5.286;2023-07-13T06:36:25;8.80;;;6.50;;
13816;SDS011;6979;52.116;5.286;2023-07-13T06:38:53;11.60;;;7.77;;
13816;SDS011;6979;52.116;5.286;2023-07-13T06:41:21;11.13;;;7.43;;
13816;SDS011;6979;52.116;5.286;2023-07-13T06:43:51;8.93;;;7.47;;
13816;SDS011;6979;52.116;5.286;2023-07-13T06:46:19;11.07;;;6.93;;
13816;SDS011;6979;52.116;5.286;2023-07-13T06:48:49;12.37;;;7.97;;
13816;SDS011;6979;52.116;5.286;2023-07-13T06:51:16;8.50;;;7.63;;
13816;SDS011;6979;52.116;5.286;2023-07-13T06:53:45;12.93;;;9.07;;
13816;SDS011;6979;52.116;5.286;2023-07-13T06:56:12;11.77;;;8.07;;
13816;SDS011;6979;52.116;5.286;2023-07-13T06:58:40;10.00;;;7.60;;
13816;SDS011;6979;52.116;5.286;2023-07-13T07:01:07;12.90;;;9.37;;
13816;SDS011;6979;52.116;5.286;2023-07-13T07:03:35;8.00;;;7.20;;
13816;SDS011;6979;52.116;5.286;2023-07-13T07:06:06;8.90;;;7.97;;
13816;SDS011;6979;52.116;5.286;2023-07-13T07:08:40;16.43;;;9.80;;
13816;SDS011;6979;52.116;5.286;2023-07-13T07:11:08;13.25;;;10.60;;
13816;SDS011;6979;52.116;5.286;2023-07-13T07:13:35;9.57;;;8.67;;
13816;SDS011;6979;52.116;5.286;2023-07-13T07:16:04;11.27;;;8.50;;
13816;SDS011;6979;52.116;5.286;2023-07-13T07:27:57;9.67;;;8.17;;
13816;SDS011;6979;52.116;5.286;2023-07-13T07:30:25;9.40;;;7.37;;
13816;SDS011;6979;52.116;5.286;2023-07-13T07:32:53;8.93;;;7.43;;
13816;SDS011;6979;52.116;5.286;2023-07-13T07:35:20;10.37;;;7.73;;
13816;SDS011;6979;52.116;5.286;2023-07-13T07:37:47;11.30;;;8.43;;
13816;SDS011;6979;52.116;5.286;2023-07-13T07:40:14;10.33;;;7.67;;
13816;SDS011;6979;52.116;5.286;2023-07-13T07:42:42;11.13;;;8.00;;
13816;SDS011;6979;52.116;5.286;2023-07-13T07:45:09;10.07;;;8.17;;
13816;SDS011;6979;52.116;5.286;2023-07-13T07:47:37;11.53;;;9.10;;
13816;SDS011;6979;52.116;5.286;2023-07-13T07:50:06;14.30;;;10.67;;
13816;SDS011;6979;52.116;5.286;2023-07-13T07:52:34;14.17;;;10.50;;
13816;SDS011;6979;52.116;5.286;2023-07-13T07:55:01;11.03;;;8.93;;
13816;SDS011;6979;52.116;5.286;2023-07-13T07:57:28;10.63;;;8.70;;
13816;SDS011;6979;52.116;5.286;2023-07-13T07:59:55;9.87;;;8.87;;
13816;SDS011;6979;52.116;5.286;2023-07-13T08:02:22;10.40;;;9.40;;
13816;SDS011;6979;52.116;5.286;2023-07-13T08:04:50;12.03;;;8.57;;
13816;SDS011;6979;52.116;5.286;2023-07-13T08:07:21;11.03;;;8.43;;
13816;SDS011;6979;52.116;5.286;2023-07-13T08:09:48;9.03;;;7.47;;
13816;SDS011;6979;52.116;5.286;2023-07-13T08:12:18;11.67;;;7.40;;
13816;SDS011;6979;52.116;5.286;2023-07-13T08:14:45;8.07;;;6.40;;
13816;SDS011;6979;52.116;5.286;2023-07-13T08:17:18;8.73;;;7.10;;
13816;SDS011;6979;52.116;5.286;2023-07-13T08:19:45;11.10;;;6.17;;
13816;SDS011;6979;52.116;5.286;2023-07-13T08:22:13;12.93;;;7.20;;
13816;SDS011;6979;52.116;5.286;2023-07-13T08:24:41;9.20;;;6.70;;
13816;SDS011;6979;52.116;5.286;2023-07-13T08:27:08;8.00;;;6.20;;
13816;SDS011;6979;52.116;5.286;2023-07-13T08:29:37;9.33;;;6.23;;
13816;SDS011;6979;52.116;5.286;2023-07-13T08:32:05;11.23;;;6.67;;
13816;SDS011;6979;52.116;5.286;2023-07-13T08:34:37;8.10;;;4.93;;
13816;SDS011;6979;52.116;5.286;2023-07-13T08:37:05;5.87;;;4.97;;
13816;SDS011;6979;52.116;5.286;2023-07-13T08:39:32;3.20;;;2.90;;
13816;SDS011;6979;52.116;5.286;2023-07-13T08:42:01;3.53;;;2.33;;
13816;SDS011;6979;52.116;5.286;2023-07-13T08:44:36;2.23;;;2.03;;
13816;SDS011;6979;52.116;5.286;2023-07-13T08:47:17;2.90;;;2.70;;
13816;SDS011;6979;52.116;5.286;2023-07-13T08:49:49;2.57;;;2.30;;
13816;SDS011;6979;52.116;5.286;2023-07-13T08:52:20;2.43;;;2.20;;
13816;SDS011;6979;52.116;5.286;2023-07-13T08:54:55;2.60;;;2.03;;
13816;SDS011;6979;52.116;5.286;2023-07-13T08:57:31;4.47;;;2.80;;
13816;SDS011;6979;52.116;5.286;2023-07-13T09:00:01;2.57;;;2.20;;
13816;SDS011;6979;52.116;5.286;2023-07-13T09:02:34;2.70;;;1.77;;
13816;SDS011;6979;52.116;5.286;2023-07-13T09:05:10;3.80;;;2.17;;
13816;SDS011;6979;52.116;5.286;2023-07-13T09:07:44;2.90;;;2.57;;
13816;SDS011;6979;52.116;5.286;2023-07-13T09:10:40;2.30;;;2.10;;
13816;SDS011;6979;52.116;5.286;2023-07-13T09:13:16;2.43;;;2.23;;
13816;SDS011;6979;52.116;5.286;2023-07-13T09:15:55;2.83;;;2.63;;
13816;SDS011;6979;52.116;5.286;2023-07-13T09:18:23;5.83;;;2.80;;
13816;SDS011;6979;52.116;5.286;2023-07-13T09:20:55;3.83;;;2.73;;
13816;SDS011;6979;52.116;5.286;2023-07-13T09:23:27;4.50;;;2.97;;
13816;SDS011;6979;52.116;5.286;2023-07-13T09:25:58;4.00;;;3.50;;
13816;SDS011;6979;52.116;5.286;2023-07-13T09:28:38;2.97;;;2.77;;
13816;SDS011;6979;52.116;5.286;2023-07-13T09:31:09;4.20;;;3.10;;
13816;SDS011;6979;52.116;5.286;2023-07-13T09:33:40;3.53;;;2.73;;
13816;SDS011;6979;52.116;5.286;2023-07-13T09:36:17;3.40;;;3.10;;
13816;SDS011;6979;52.116;5.286;2023-07-13T09:38:48;4.80;;;3.28;;
13816;SDS011;6979;52.116;5.286;2023-07-13T09:41:19;3.60;;;2.88;;
13816;SDS011;6979;52.116;5.286;2023-07-13T09:44:10;3.57;;;2.57;;
13816;SDS011;6979;52.116;5.286;2023-07-13T09:46:39;3.30;;;2.30;;
13816;SDS011;6979;52.116;5.286;2023-07-13T09:49:12;2.13;;;1.93;;
13816;SDS011;6979;52.116;5.286;2023-07-13T09:51:41;2.20;;;1.90;;
13816;SDS011;6979;52.116;5.286;2023-07-13T09:54:17;4.77;;;2.70;;
13816;SDS011;6979;52.116;5.286;2023-07-13T09:56:45;3.33;;;2.50;;
13816;SDS011;6979;52.116;5.286;2023-07-13T09:59:20;7.17;;;2.47;;
13816;SDS011;6979;52.116;5.286;2023-07-13T10:01:50;5.13;;;2.53;;
13816;SDS011;6979;52.116;5.286;2023-07-13T10:04:17;2.50;;;2.30;;
13816;SDS011;6979;52.116;5.286;2023-07-13T10:06:46;3.50;;;2.57;;
13816;SDS011;6979;52.116;5.286;2023-07-13T10:09:15;3.23;;;2.80;;
13816;SDS011;6979;52.116;5.286;2023-07-13T10:11:43;4.30;;;3.17;;
13816;SDS011;6979;52.116;5.286;2023-07-13T10:14:14;2.73;;;2.53;;
13816;SDS011;6979;52.116;5.286;2023-07-13T10:16:44;3.20;;;2.57;;
13816;SDS011;6979;52.116;5.286;2023-07-13T10:19:15;3.33;;;3.00;;
13816;SDS011;6979;52.116;5.286;2023-07-13T10:21:50;3.00;;;2.67;;
13816;SDS011;6979;52.116;5.286;2023-07-13T10:24:21;2.37;;;2.17;;
13816;SDS011;6979;52.116;5.286;2023-07-13T10:26:52;4.90;;;3.13;;
13816;SDS011;6979;52.116;5.286;2023-07-13T10:29:22;3.80;;;2.80;;
13816;SDS011;6979;52.116;5.286;2023-07-13T10:31:53;3.77;;;3.03;;
13816;SDS011;6979;52.116;5.286;2023-07-13T10:34:22;2.47;;;2.20;;
13816;SDS011;6979;52.116;5.286;2023-07-13T10:36:49;4.33;;;2.77;;
13816;SDS011;6979;52.116;5.286;2023-07-13T10:39:19;5.13;;;2.43;;
13816;SDS011;6979;52.116;5.286;2023-07-13T10:41:50;3.97;;;2.73;;
13816;SDS011;6979;52.116;5.286;2023-07-13T10:44:21;2.73;;;2.50;;
13816;SDS011;6979;52.116;5.286;2023-07-13T10:46:55;2.80;;;2.10;;
13816;SDS011;6979;52.116;5.286;2023-07-13T10:49:26;3.97;;;2.60;;
13816;SDS011;6979;52.116;5.286;2023-07-13T10:51:55;2.37;;;2.17;;
13816;SDS011;6979;52.116;5.286;2023-07-13T10:54:26;2.60;;;2.40;;
13816;SDS011;6979;52.116;5.286;2023-07-13T10:57:14;3.13;;;2.40;;
13816;SDS011;6979;52.116;5.286;2023-07-13T10:59:45;2.30;;;2.10;;
13816;SDS011;6979;52.116;5.286;2023-07-13T11:02:17;1.97;;;1.87;;
13816;SDS011;6979;52.116;5.286;2023-07-13T11:04:51;2.27;;;1.80;;
13816;SDS011;6979;52.116;5.286;2023-07-13T11:07:20;2.60;;;2.13;;
13816;SDS011;6979;52.116;5.286;2023-07-13T11:09:50;4.57;;;2.87;;
13816;SDS011;6979;52.116;5.286;2023-07-13T11:15:26;2.27;;;2.10;;
13816;SDS011;6979;52.116;5.286;2023-07-13T11:17:59;2.67;;;2.23;;
13816;SDS011;6979;52.116;5.286;2023-07-13T11:20:34;4.27;;;2.60;;
13816;SDS011;6979;52.116;5.286;2023-07-13T11:23:09;4.80;;;3.10;;
13816;SDS011;6979;52.116;5.286;2023-07-13T11:25:44;4.70;;;2.43;;
13816;SDS011;6979;52.116;5.286;2023-07-13T11:28:15;3.23;;;2.43;;
13816;SDS011;6979;52.116;5.286;2023-07-13T11:30:46;3.13;;;2.83;;
13816;SDS011;6979;52.116;5.286;2023-07-13T11:33:17;2.70;;;2.47;;
13816;SDS011;6979;52.116;5.286;2023-07-13T11:35:48;3.20;;;2.03;;
13816;SDS011;6979;52.116;5.286;2023-07-13T11:38:27;2.33;;;2.23;;
13816;SDS011;6979;52.116;5.286;2023-07-13T11:40:58;2.53;;;2.33;;
13816;SDS011;6979;52.116;5.286;2023-07-13T11:43:29;4.10;;;2.40;;
13816;SDS011;6979;52.116;5.286;2023-07-13T11:45:59;2.80;;;2.20;;
13816;SDS011;6979;52.116;5.286;2023-07-13T11:48:40;2.80;;;2.30;;
13816;SDS011;6979;52.116;5.286;2023-07-13T11:51:09;2.40;;;2.20;;
13816;SDS011;6979;52.116;5.286;2023-07-13T11:53:50;2.80;;;2.37;;
13816;SDS011;6979;52.116;5.286;2023-07-13T11:56:18;3.57;;;2.60;;
13816;SDS011;6979;52.116;5.286;2023-07-13T11:58:48;4.37;;;2.80;;
13816;SDS011;6979;52.116;5.286;2023-07-13T12:01:18;3.10;;;2.90;;
13816;SDS011;6979;52.116;5.286;2023-07-13T12:03:49;3.70;;;2.17;;
13816;SDS011;6979;52.116;5.286;2023-07-13T12:06:22;4.73;;;2.83;;
13816;SDS011;6979;52.116;5.286;2023-07-13T12:08:55;4.87;;;3.37;;
13816;SDS011;6979;52.116;5.286;2023-07-13T12:11:24;2.93;;;2.63;;
13816;SDS011;6979;52.116;5.286;2023-07-13T12:13:53;3.07;;;2.70;;
13816;SDS011;6979;52.116;5.286;2023-07-13T12:16:23;2.67;;;2.47;;
13816;SDS011;6979;52.116;5.286;2023-07-13T12:18:59;2.27;;;2.07;;
13816;SDS011;6979;52.116;5.286;2023-07-13T12:21:31;2.87;;;2.67;;
13816;SDS011;6979;52.116;5.286;2023-07-13T12:24:00;3.00;;;2.60;;
13816;SDS011;6979;52.116;5.286;2023-07-13T12:26:29;4.93;;;3.10;;
13816;SDS011;6979;52.116;5.286;2023-07-13T12:28:58;3.20;;;2.97;;
13816;SDS011;6979;52.116;5.286;2023-07-13T12:31:31;2.93;;;2.57;;
13816;SDS011;6979;52.116;5.286;2023-07-13T12:34:06;3.17;;;2.50;;
13816;SDS011;6979;52.116;5.286;2023-07-13T12:36:40;3.93;;;2.53;;
13816;SDS011;6979;52.116;5.286;2023-07-13T12:39:14;2.87;;;2.67;;
13816;SDS011;6979;52.116;5.286;2023-07-13T12:41:45;2.43;;;2.10;;
13816;SDS011;6979;52.116;5.286;2023-07-13T12:44:14;3.03;;;2.77;;
13816;SDS011;6979;52.116;5.286;2023-07-13T12:46:53;2.77;;;2.53;;
13816;SDS011;6979;52.116;5.286;2023-07-13T12:49:28;3.20;;;2.60;;
13816;SDS011;6979;52.116;5.286;2023-07-13T12:52:00;2.87;;;2.67;;
13816;SDS011;6979;52.116;5.286;2023-07-13T12:54:29;3.23;;;2.20;;
13816;SDS011;6979;52.116;5.286;2023-07-13T12:56:59;3.03;;;2.70;;
13816;SDS011;6979;52.116;5.286;2023-07-13T12:59:31;2.57;;;2.47;;
13816;SDS011;6979;52.116;5.286;2023-07-13T13:02:09;2.90;;;2.70;;
13816;SDS011;6979;52.116;5.286;2023-07-13T13:04:50;2.87;;;2.67;;
13816;SDS011;6979;52.116;5.286;2023-07-13T13:07:17;3.00;;;2.60;;
13816;SDS011;6979;52.116;5.286;2023-07-13T13:09:45;2.30;;;2.20;;
13816;SDS011;6979;52.116;5.286;2023-07-13T13:12:12;2.53;;;2.30;;
13816;SDS011;6979;52.116;5.286;2023-07-13T13:14:40;2.70;;;2.50;;
13816;SDS011;6979;52.116;5.286;2023-07-13T13:17:11;3.17;;;2.30;;
13816;SDS011;6979;52.116;5.286;2023-07-13T13:19:45;2.13;;;2.03;;
13816;SDS011;6979;52.116;5.286;2023-07-13T13:22:14;2.40;;;2.20;;
13816;SDS011;6979;52.116;5.286;2023-07-13T13:24:41;2.77;;;2.57;;
13816;SDS011;6979;52.116;5.286;2023-07-13T13:27:12;3.93;;;2.70;;
13816;SDS011;6979;52.116;5.286;2023-07-13T13:29:46;3.87;;;2.60;;
13816;SDS011;6979;52.116;5.286;2023-07-13T13:32:15;2.37;;;2.27;;
13816;SDS011;6979;52.116;5.286;2023-07-13T13:34:42;3.20;;;2.80;;
13816;SDS011;6979;52.116;5.286;2023-07-13T13:37:12;2.97;;;2.33;;
13816;SDS011;6979;52.116;5.286;2023-07-13T13:39:45;3.47;;;2.80;;
13816;SDS011;6979;52.116;5.286;2023-07-13T13:42:13;2.50;;;2.30;;
13816;SDS011;6979;52.116;5.286;2023-07-13T13:44:40;2.60;;;2.40;;
13816;SDS011;6979;52.116;5.286;2023-07-13T13:47:12;2.53;;;2.33;;
13816;SDS011;6979;52.116;5.286;2023-07-13T13:49:51;2.63;;;2.43;;
13816;SDS011;6979;52.116;5.286;2023-07-13T13:52:19;2.50;;;2.30;;
13816;SDS011;6979;52.116;5.286;2023-07-13T13:54:46;2.93;;;2.73;;
13816;SDS011;6979;52.116;5.286;2023-07-13T13:57:14;3.27;;;2.97;;
13816;SDS011;6979;52.116;5.286;2023-07-13T13:59:41;2.47;;;2.27;;
13816;SDS011;6979;52.116;5.286;2023-07-13T14:02:18;2.97;;;2.70;;
13816;SDS011;6979;52.116;5.286;2023-07-13T14:04:50;2.90;;;2.70;;
13816;SDS011;6979;52.116;5.286;2023-07-13T14:07:22;2.90;;;2.60;;
13816;SDS011;6979;52.116;5.286;2023-07-13T14:09:49;3.20;;;2.70;;
13816;SDS011;6979;52.116;5.286;2023-07-13T14:12:16;2.20;;;2.10;;
13816;SDS011;6979;52.116;5.286;2023-07-13T14:14:43;3.07;;;2.73;;
13816;SDS011;6979;52.116;5.286;2023-07-13T14:17:18;2.47;;;2.30;;
13816;SDS011;6979;52.116;5.286;2023-07-13T14:19:48;2.40;;;2.10;;
13816;SDS011;6979;52.116;5.286;2023-07-13T14:22:23;2.20;;;2.00;;
13816;SDS011;6979;52.116;5.286;2023-07-13T14:24:51;2.27;;;2.17;;
13816;SDS011;6979;52.116;5.286;2023-07-13T14:27:19;2.50;;;2.20;;
13816;SDS011;6979;52.116;5.286;2023-07-13T14:29:53;2.93;;;2.37;;
13816;SDS011;6979;52.116;5.286;2023-07-13T14:32:22;2.83;;;2.57;;
13816;SDS011;6979;52.116;5.286;2023-07-13T14:34:50;2.70;;;2.50;;
13816;SDS011;6979;52.116;5.286;2023-07-13T14:37:17;2.93;;;2.40;;
13816;SDS011;6979;52.116;5.286;2023-07-13T14:39:51;2.10;;;2.00;;
13816;SDS011;6979;52.116;5.286;2023-07-13T14:42:19;2.17;;;2.07;;
13816;SDS011;6979;52.116;5.286;2023-07-13T14:44:49;2.53;;;2.33;;
13816;SDS011;6979;52.116;5.286;2023-07-13T14:47:16;2.50;;;2.30;;
13816;SDS011;6979;52.116;5.286;2023-07-13T14:49:44;1.90;;;1.80;;
13816;SDS011;6979;52.116;5.286;2023-07-13T14:52:13;2.33;;;2.13;;
13816;SDS011;6979;52.116;5.286;2023-07-13T14:54:43;2.20;;;2.07;;
13816;SDS011;6979;52.116;5.286;2023-07-13T14:57:12;3.07;;;2.73;;
13816;SDS011;6979;52.116;5.286;2023-07-13T14:59:41;2.50;;;2.30;;
13816;SDS011;6979;52.116;5.286;2023-07-13T15:02:14;2.93;;;2.17;;
13816;SDS011;6979;52.116;5.286;2023-07-13T15:04:44;3.33;;;2.23;;
13816;SDS011;6979;52.116;5.286;2023-07-13T15:07:11;2.33;;;2.00;;
13816;SDS011;6979;52.116;5.286;2023-07-13T15:09:43;2.70;;;1.83;;
13816;SDS011;6979;52.116;5.286;2023-07-13T15:12:10;2.70;;;2.23;;
13816;SDS011;6979;52.116;5.286;2023-07-13T15:14:38;2.63;;;2.40;;
13816;SDS011;6979;52.116;5.286;2023-07-13T15:17:08;2.47;;;2.00;;
13816;SDS011;6979;52.116;5.286;2023-07-13T15:19:47;3.00;;;2.47;;
13816;SDS011;6979;52.116;5.286;2023-07-13T15:22:14;2.17;;;1.90;;
13816;SDS011;6979;52.116;5.286;2023-07-13T15:24:42;1.87;;;1.70;;
13816;SDS011;6979;52.116;5.286;2023-07-13T15:27:09;2.87;;;2.10;;
13816;SDS011;6979;52.116;5.286;2023-07-13T15:29:39;2.87;;;2.20;;